createdAt,value
2018-08-23T00:01:17.666Z,20.8
2018-08-23T00:02:08.561Z,20.8
2018-08-23T00:02:58.211Z,20.7
2018-08-23T00:03:49.147Z,20.6
2018-08-23T00:04:38.520Z,20.5
2018-08-23T00:05:28.317Z,20.5
2018-08-23T00:06:18.422Z,20.5
2018-08-23T00:07:09.037Z,20.5
2018-08-23T00:07:59.237Z,20.5
2018-08-23T00:08:49.257Z,20.4
2018-08-23T00:09:38.998Z,20.6
2018-08-23T00:10:29.123Z,20.5
2018-08-23T00:11:19.457Z,20.4
2018-08-23T00:12:09.399Z,20.4
2018-08-23T00:31:26.251Z,20.4
2018-08-23T00:32:16.622Z,20.4
2018-08-23T00:33:06.110Z,20.4
2018-08-23T00:33:56.411Z,20.4
2018-08-23T00:34:46.519Z,20.4
2018-08-23T00:35:36.593Z,20.4
2018-08-23T00:36:26.349Z,20.4
2018-08-23T00:37:16.985Z,20.4
2018-08-23T00:38:06.486Z,20.4
2018-08-23T00:38:56.819Z,20.4
2018-08-23T00:39:47.193Z,20.4
2018-08-23T00:40:37.266Z,20.4
2018-08-23T00:41:26.751Z,20.4
2018-08-23T00:42:17.137Z,20.4
2018-08-23T00:43:07.123Z,20.3
2018-08-23T00:43:56.893Z,20.3
2018-08-23T00:44:45.836Z,20.3
2018-08-23T00:45:37.326Z,20.4
2018-08-23T00:46:27.406Z,20.3
2018-08-23T00:47:17.436Z,20.3
2018-08-23T00:48:07.500Z,20.4
2018-08-23T00:48:57.028Z,20.4
2018-08-23T00:49:47.651Z,20.3
2018-08-23T00:50:37.410Z,20.3
2018-08-23T00:51:27.471Z,20.3
2018-08-23T00:52:17.863Z,20.3
2018-08-23T00:53:08.205Z,20.3
2018-08-23T00:53:57.728Z,20.3
2018-08-23T00:54:48.348Z,20.3
2018-08-23T00:55:38.340Z,20.2
2018-08-23T00:56:27.860Z,20.2
2018-08-23T00:57:18.227Z,20.2
2018-08-23T00:58:08.548Z,20.2
2018-08-23T00:58:58.633Z,20.3
2018-08-23T00:59:48.650Z,20.2
2018-08-23T01:00:38.753Z,20.2
2018-08-23T01:01:28.792Z,20.3
2018-08-23T01:02:18.897Z,20.3
2018-08-23T01:03:08.679Z,20.3
2018-08-23T01:03:58.416Z,20.2
2018-08-23T01:04:49.040Z,20.2
2018-08-23T01:05:39.130Z,20.2
2018-08-23T01:06:29.180Z,20.2
2018-08-23T01:07:19.245Z,20.3
2018-08-23T01:08:09.360Z,20.3
2018-08-23T01:08:59.370Z,20.3
2018-08-23T01:09:49.465Z,20.4
2018-08-23T01:10:38.962Z,20.3
2018-08-23T01:11:29.565Z,20.3
2018-08-23T01:12:19.623Z,20.3
2018-08-23T01:13:09.687Z,20.3
2018-08-23T01:13:59.457Z,20.3
2018-08-23T01:14:49.564Z,20.3
2018-08-23T01:15:39.585Z,20.3
2018-08-23T01:16:29.655Z,20.3
2018-08-23T01:17:19.457Z,20.3
2018-08-23T01:18:08.642Z,20.3
2018-08-23T01:18:59.888Z,20.2
2018-08-23T01:19:50.239Z,20.2
2018-08-23T01:20:39.986Z,20.3
2018-08-23T01:21:30.368Z,20.3
2018-08-23T01:22:20.455Z,20.2
2018-08-23T01:23:10.481Z,20.3
2018-08-23T01:23:59.966Z,20.2
2018-08-23T01:24:50.355Z,20.3
2018-08-23T01:25:40.383Z,20.3
2018-08-23T01:26:30.746Z,20.3
2018-08-23T01:27:20.796Z,20.3
2018-08-23T01:28:10.574Z,20.2
2018-08-23T01:29:00.641Z,20.1
2018-08-23T01:29:50.414Z,20.2
2018-08-23T01:30:40.776Z,20.2
2018-08-23T01:31:31.151Z,20.1
2018-08-23T01:32:21.228Z,20.1
2018-08-23T01:33:11.259Z,20.1
2018-08-23T01:34:00.446Z,20.1
2018-08-23T01:34:51.080Z,20.1
2018-08-23T01:35:41.475Z,20
2018-08-23T01:36:31.477Z,19.9
2018-08-23T01:37:21.541Z,20
2018-08-23T01:38:11.325Z,20
2018-08-23T01:39:01.123Z,19.9
2018-08-23T01:39:51.448Z,19.9
2018-08-23T01:40:41.797Z,20
2018-08-23T01:41:31.588Z,19.9
2018-08-23T01:42:21.948Z,20
2018-08-23T01:43:11.980Z,20
2018-08-23T01:44:02.047Z,19.9
2018-08-23T01:44:51.815Z,19.9
2018-08-23T01:45:41.320Z,19.8
2018-08-23T01:46:31.673Z,19.8
2018-08-23T01:47:21.709Z,19.8
2018-08-23T01:48:12.085Z,19.8
2018-08-23T01:49:02.161Z,19.9
2018-08-23T01:49:52.214Z,19.8
2018-08-23T01:50:41.978Z,19.9
2018-08-23T01:51:32.067Z,19.9
2018-08-23T01:52:22.675Z,19.8
2018-08-23T01:53:12.194Z,19.8
2018-08-23T01:54:02.576Z,19.6
2018-08-23T01:54:52.877Z,19.5
2018-08-23T01:55:42.205Z,19.4
2018-08-23T01:56:32.519Z,19.4
2018-08-23T01:57:22.005Z,19.4
2018-08-23T01:58:12.856Z,19.3
2018-08-23T01:59:03.289Z,19.3
2018-08-23T01:59:52.429Z,19.2
2018-08-23T02:00:42.801Z,19.1
2018-08-23T02:01:33.143Z,19.1
2018-08-23T02:02:23.176Z,18.9
2018-08-23T02:03:13.332Z,18.6
2018-08-23T02:04:03.636Z,18.3
2018-08-23T02:04:53.106Z,18
2018-08-23T02:05:43.760Z,17.8
2018-08-23T02:06:33.508Z,17.8
2018-08-23T02:07:23.603Z,17.8
2018-08-23T02:08:13.939Z,17.8
2018-08-23T02:09:03.409Z,17.7
2018-08-23T02:09:53.766Z,17.6
2018-08-23T02:10:44.101Z,17.6
2018-08-23T02:11:34.145Z,17.6
2018-08-23T02:12:24.206Z,17.5
2018-08-23T02:13:14.304Z,17.4
2018-08-23T02:14:03.793Z,17.3
2018-08-23T02:14:54.422Z,17.3
2018-08-23T02:15:44.208Z,17.3
2018-08-23T02:16:33.999Z,17.3
2018-08-23T02:17:24.621Z,17.3
2018-08-23T02:18:14.701Z,17.3
2018-08-23T02:19:04.038Z,17.3
2018-08-23T02:19:54.068Z,17.1
2018-08-23T02:20:44.604Z,17.1
2018-08-23T02:21:34.927Z,17.1
2018-08-23T02:23:14.786Z,17.1
2018-08-23T02:24:04.840Z,17.1
2018-08-23T02:25:44.973Z,16.9
2018-08-23T02:27:24.818Z,16.9
2018-08-23T02:28:14.588Z,16.9
2018-08-23T02:29:04.775Z,16.9
2018-08-23T02:29:55.355Z,16.9
2018-08-23T02:30:45.391Z,16.9
2018-08-23T02:31:35.181Z,16.9
2018-08-23T02:32:25.213Z,16.9
2018-08-23T02:33:15.270Z,16.9
2018-08-23T02:34:05.918Z,16.9
2018-08-23T02:34:55.720Z,16.9
2018-08-23T02:35:45.758Z,16.9
2018-08-23T02:36:35.813Z,16.9
2018-08-23T02:37:25.595Z,16.8
2018-08-23T02:38:17.034Z,16.8
2018-08-23T02:39:05.731Z,16.8
2018-08-23T02:39:55.803Z,16.7
2018-08-23T02:40:46.133Z,16.6
2018-08-23T02:41:36.475Z,16.5
2018-08-23T02:42:26.557Z,16.5
2018-08-23T02:43:16.445Z,16.4
2018-08-23T02:44:05.637Z,16.4
2018-08-23T02:44:56.287Z,16.3
2018-08-23T02:45:46.281Z,16.2
2018-08-23T02:46:36.590Z,16.1
2018-08-23T02:47:26.928Z,16.2
2018-08-23T02:48:17.006Z,16.1
2018-08-23T02:49:07.092Z,16.1
2018-08-23T02:49:56.852Z,16.1
2018-08-23T02:50:47.190Z,16.1
2018-08-23T02:51:37.244Z,16.1
2018-08-23T02:52:26.722Z,16
2018-08-23T02:53:16.537Z,15.9
2018-08-23T02:54:07.134Z,15.9
2018-08-23T02:54:57.497Z,15.9
2018-08-23T02:55:47.281Z,16.1
2018-08-23T02:56:37.634Z,16.1
2018-08-23T02:57:27.402Z,16.1
2018-08-23T02:58:17.480Z,16.3
2018-08-23T02:59:07.883Z,16.2
2018-08-23T02:59:57.624Z,16.2
2018-08-23T03:00:47.142Z,16.2
2018-08-23T03:01:38.047Z,16.2
2018-08-23T03:02:27.810Z,16.3
2018-08-23T03:03:18.211Z,16.3
2018-08-23T03:04:08.257Z,16.3
2018-08-23T03:04:57.736Z,16.2
2018-08-23T03:05:47.818Z,16.2
2018-08-23T03:06:38.456Z,16.1
2018-08-23T03:07:28.507Z,16.1
2018-08-23T03:08:18.578Z,16.1
2018-08-23T03:09:08.346Z,16.1
2018-08-23T03:09:58.394Z,16.1
2018-08-23T03:10:48.457Z,16.1
2018-08-23T03:11:38.806Z,16.1
2018-08-23T03:12:28.602Z,16.1
2018-08-23T03:13:18.708Z,16.1
2018-08-23T03:14:09.353Z,16.1
2018-08-23T03:14:58.781Z,16.1
2018-08-23T03:15:48.856Z,16.1
2018-08-23T03:16:39.189Z,16.1
2018-08-23T03:17:28.970Z,16.1
2018-08-23T03:18:19.321Z,16.1
2018-08-23T03:19:09.106Z,16.1
2018-08-23T03:19:59.458Z,16
2018-08-23T03:20:49.218Z,16
2018-08-23T03:21:39.563Z,15.9
2018-08-23T03:22:29.063Z,15.8
2018-08-23T03:23:19.423Z,15.8
2018-08-23T03:24:09.470Z,15.8
2018-08-23T03:24:59.550Z,15.8
2018-08-23T03:25:49.657Z,15.8
2018-08-23T03:26:39.987Z,15.8
2018-08-23T03:27:29.733Z,15.8
2018-08-23T03:28:19.510Z,15.6
2018-08-23T03:29:09.837Z,15.6
2018-08-23T03:29:59.921Z,15.6
2018-08-23T03:30:50.293Z,15.7
2018-08-23T03:31:39.802Z,15.7
2018-08-23T03:32:30.171Z,15.8
2018-08-23T03:33:20.189Z,15.7
2018-08-23T03:34:10.537Z,15.7
2018-08-23T03:34:59.744Z,15.7
2018-08-23T03:35:50.376Z,15.8
2018-08-23T03:36:40.447Z,15.8
2018-08-23T03:37:30.287Z,15.7
2018-08-23T03:38:20.880Z,15.7
2018-08-23T03:39:10.639Z,15.6
2018-08-23T03:40:00.802Z,15.6
2018-08-23T03:40:50.799Z,15.6
2018-08-23T03:41:40.881Z,15.6
2018-08-23T03:42:30.907Z,15.6
2018-08-23T03:43:21.179Z,15.6
2018-08-23T03:44:10.168Z,15.6
2018-08-23T03:45:01.092Z,15.6
2018-08-23T03:45:51.236Z,15.6
2018-08-23T03:46:41.478Z,15.6
2018-08-23T03:47:30.983Z,15.6
2018-08-23T03:48:21.648Z,15.6
2018-08-23T03:49:11.406Z,15.6
2018-08-23T03:50:00.901Z,15.6
2018-08-23T03:50:51.542Z,15.5
2018-08-23T03:51:41.328Z,15.4
2018-08-23T03:52:31.736Z,15.5
2018-08-23T03:53:21.433Z,15.5
2018-08-23T03:54:12.113Z,15.6
2018-08-23T03:55:01.295Z,15.6
2018-08-23T03:55:52.197Z,15.6
2018-08-23T03:56:42.258Z,15.6
2018-08-23T03:57:32.057Z,15.6
2018-08-23T03:58:21.835Z,15.6
2018-08-23T03:59:12.446Z,15.6
2018-08-23T04:00:02.580Z,15.6
2018-08-23T04:00:52.597Z,15.6
2018-08-23T04:01:42.644Z,15.6
2018-08-23T04:02:32.707Z,15.6
2018-08-23T04:03:22.486Z,15.6
2018-08-23T04:04:12.299Z,15.6
2018-08-23T04:05:02.627Z,15.6
2018-08-23T04:05:52.709Z,15.7
2018-08-23T04:06:42.781Z,15.7
2018-08-23T04:07:32.568Z,15.7
2018-08-23T04:08:23.161Z,15.7
2018-08-23T04:09:12.640Z,15.7
2018-08-23T04:10:03.308Z,15.8
2018-08-23T04:10:52.795Z,15.7
2018-08-23T04:11:43.145Z,15.7
2018-08-23T04:12:33.188Z,15.8
2018-08-23T04:13:23.568Z,15.8
2018-08-23T04:14:13.620Z,15.8
2018-08-23T04:15:03.424Z,15.9
2018-08-23T04:15:53.465Z,15.9
2018-08-23T04:16:43.820Z,15.9
2018-08-23T04:17:33.585Z,15.9
2018-08-23T04:18:23.652Z,15.9
2018-08-23T04:19:14.006Z,15.9
2018-08-23T04:20:04.092Z,15.9
2018-08-23T04:20:54.152Z,15.9
2018-08-23T04:21:43.951Z,15.9
2018-08-23T04:22:33.996Z,15.9
2018-08-23T04:23:23.770Z,15.9
2018-08-23T04:24:14.131Z,15.9
2018-08-23T04:25:04.216Z,16
2018-08-23T04:25:54.265Z,15.9
2018-08-23T04:26:44.592Z,16
2018-08-23T04:27:34.357Z,16.1
2018-08-23T04:28:24.151Z,16.1
2018-08-23T04:29:14.760Z,16.1
2018-08-23T04:30:04.839Z,16.2
2018-08-23T04:30:54.344Z,16.1
2018-08-23T04:31:44.680Z,16.1
2018-08-23T04:32:35.053Z,16.2
2018-08-23T04:33:25.096Z,16.2
2018-08-23T04:34:14.580Z,16.2
2018-08-23T04:35:04.941Z,16.3
2018-08-23T04:35:55.286Z,16.3
2018-08-23T04:36:44.806Z,16.3
2018-08-23T04:37:35.126Z,16.3
2018-08-23T04:38:25.226Z,16.4
2018-08-23T04:39:15.528Z,16.4
2018-08-23T04:40:04.756Z,16.4
2018-08-23T04:40:55.396Z,16.4
2018-08-23T04:41:45.747Z,16.4
2018-08-23T04:42:35.518Z,16.4
2018-08-23T05:00:32.195Z,17.4
2018-08-23T05:01:22.884Z,17.4
2018-08-23T05:02:12.596Z,17.5
2018-08-23T05:03:02.382Z,17.5
2018-08-23T05:03:53.172Z,17.6
2018-08-23T05:04:43.082Z,17.6
2018-08-23T05:05:33.138Z,17.7
2018-08-23T05:06:22.670Z,17.8
2018-08-23T05:07:13.248Z,17.9
2018-08-23T05:08:03.313Z,17.9
2018-08-23T05:08:53.375Z,18
2018-08-23T05:09:43.431Z,18.1
2018-08-23T05:10:33.056Z,18.2
2018-08-23T05:11:23.275Z,18.3
2018-08-23T05:12:13.629Z,18.3
2018-08-23T05:13:03.759Z,18.4
2018-08-23T05:13:53.618Z,18.6
2018-08-23T05:14:43.541Z,18.6
2018-08-23T05:15:33.627Z,18.6
2018-08-23T05:16:23.124Z,18.8
2018-08-23T05:18:03.821Z,18.8
2018-08-23T05:20:34.016Z,18.8
2018-08-23T05:21:23.820Z,18.9
2018-08-23T05:22:14.119Z,18.9
2018-08-23T05:23:04.578Z,18.9
2018-08-23T05:23:54.575Z,18.9
2018-08-23T05:24:44.606Z,19.2
2018-08-23T05:25:34.651Z,19.4
2018-08-23T05:26:24.458Z,19.4
2018-08-23T05:27:14.787Z,19.4
2018-08-23T05:28:04.876Z,19.4
2018-08-23T05:28:54.908Z,19.4
2018-08-23T05:29:45.327Z,19.4
2018-08-23T05:30:34.775Z,19.3
2018-08-23T05:31:25.112Z,19.3
2018-08-23T05:32:15.164Z,19.3
2018-08-23T05:33:05.279Z,19.2
2018-08-23T05:33:55.294Z,19.3
2018-08-23T05:34:45.116Z,19.4
2018-08-23T05:35:35.179Z,19.4
2018-08-23T05:36:25.236Z,19.8
2018-08-23T05:37:15.295Z,20.1
2018-08-23T05:38:05.628Z,20.1
2018-08-23T05:38:55.429Z,20.3
2018-08-23T05:39:45.747Z,20.2
2018-08-23T05:40:35.544Z,20
2018-08-23T05:41:25.333Z,20
2018-08-23T05:42:15.674Z,19.9
2018-08-23T05:43:05.717Z,19.7
2018-08-23T05:43:55.788Z,19.6
2018-08-23T05:44:46.135Z,19.6
2018-08-23T05:45:35.907Z,19.5
2018-08-23T05:46:26.311Z,19.8
2018-08-23T05:47:15.812Z,19.9
2018-08-23T05:48:06.133Z,19.7
2018-08-23T05:48:56.488Z,19.8
2018-08-23T05:49:46.245Z,20.1
2018-08-23T05:50:36.079Z,20.4
2018-08-23T05:51:26.387Z,20.7
2018-08-23T05:52:16.462Z,20.9
2018-08-23T05:53:06.497Z,21
2018-08-23T05:53:56.592Z,21.1
2018-08-23T05:54:46.375Z,21.3
2018-08-23T05:55:37.015Z,21.2
2018-08-23T05:57:17.117Z,21.2
2018-08-23T05:58:07.223Z,21.1
2018-08-23T05:58:56.975Z,21.2
2018-08-23T05:59:47.319Z,21.3
2018-08-23T06:00:37.123Z,21.3
2018-08-23T06:01:27.428Z,21
2018-08-23T06:02:17.489Z,20.8
2018-08-23T06:03:07.287Z,20.7
2018-08-23T06:03:57.340Z,20.7
2018-08-23T06:04:47.671Z,20.8
2018-08-23T06:05:37.782Z,20.9
2018-08-23T06:06:27.524Z,21
2018-08-23T06:07:17.924Z,20.9
2018-08-23T06:08:58.001Z,21.3
2018-08-23T06:09:47.766Z,21.6
2018-08-23T06:10:38.118Z,21.6
2018-08-23T06:11:28.239Z,21.8
2018-08-23T06:12:17.977Z,21.8
2018-08-23T06:13:08.056Z,21.6
2018-08-23T06:13:58.109Z,21.7
2018-08-23T06:14:48.482Z,21.9
2018-08-23T06:15:38.512Z,22
2018-08-23T06:16:28.595Z,22.2
2018-08-23T06:17:18.110Z,22.3
2018-08-23T06:18:08.695Z,22.4
2018-08-23T06:18:58.766Z,22.5
2018-08-23T06:19:48.908Z,22.7
2018-08-23T06:20:38.892Z,22.7
2018-08-23T06:21:28.718Z,22.6
2018-08-23T06:22:19.025Z,22.6
2018-08-23T06:23:08.838Z,22.6
2018-08-23T06:23:58.649Z,22.8
2018-08-23T06:24:48.694Z,22.8
2018-08-23T06:25:38.288Z,22.8
2018-08-23T06:26:28.335Z,22.9
2018-08-23T06:27:18.253Z,22.9
2018-08-23T06:28:08.961Z,23
2018-08-23T06:28:58.340Z,23.1
2018-08-23T06:29:48.891Z,23.3
2018-08-23T06:30:38.385Z,23.1
2018-08-23T06:31:29.230Z,22.6
2018-08-23T06:32:18.525Z,22.4
2018-08-23T06:33:10.029Z,22.8
2018-08-23T06:34:00.138Z,23
2018-08-23T06:34:49.495Z,23.3
2018-08-23T06:35:39.312Z,23.3
2018-08-23T06:36:29.424Z,23.1
2018-08-23T06:37:19.492Z,23.3
2018-08-23T06:38:09.825Z,23.3
2018-08-23T06:38:59.392Z,23.1
2018-08-23T06:39:50.140Z,22.8
2018-08-23T06:40:40.263Z,22.4
2018-08-23T06:41:29.796Z,22.8
2018-08-23T06:42:20.330Z,23.1
2018-08-23T06:43:10.411Z,23.4
2018-08-23T06:44:00.273Z,23.5
2018-08-23T06:44:50.578Z,23.6
2018-08-23T06:45:40.082Z,23.4
2018-08-23T06:46:30.422Z,23.4
2018-08-23T06:47:20.247Z,23.4
2018-08-23T06:48:10.100Z,23.4
2018-08-23T06:49:00.416Z,23.7
2018-08-23T06:49:50.387Z,23.9
2018-08-23T06:50:39.888Z,24
2018-08-23T06:51:30.787Z,23.8
2018-08-23T06:52:20.568Z,23.8
2018-08-23T06:53:11.543Z,23.6
2018-08-23T06:54:00.480Z,23.6
2018-08-23T06:54:51.065Z,24.1
2018-08-23T06:55:41.417Z,24.2
2018-08-23T06:56:31.264Z,24.3
2018-08-23T06:57:20.652Z,24.2
2018-08-23T06:58:11.307Z,24.5
2018-08-23T06:59:01.286Z,24.5
2018-08-23T06:59:51.024Z,24.5
2018-08-23T07:00:41.193Z,24.5
2018-08-23T07:01:31.537Z,24.2
2018-08-23T07:02:21.701Z,23.9
2018-08-23T07:03:11.699Z,24
2018-08-23T07:04:02.124Z,23.9
2018-08-23T07:04:51.706Z,24.2
2018-08-23T07:05:41.396Z,24.4
2018-08-23T07:06:31.967Z,24.2
2018-08-23T07:07:21.844Z,23.6
2018-08-23T07:08:12.472Z,23.9
2018-08-23T07:09:01.744Z,24.1
2018-08-23T07:09:51.714Z,24
2018-08-23T07:10:43.053Z,23.7
2018-08-23T07:11:32.050Z,24
2018-08-23T07:12:22.114Z,24.2
2018-08-23T07:13:12.371Z,24.1
2018-08-23T07:14:02.548Z,24.4
2018-08-23T07:14:52.865Z,24.8
2018-08-23T07:15:42.128Z,25.1
2018-08-23T07:16:32.403Z,24.7
2018-08-23T07:17:22.694Z,24.4
2018-08-23T07:18:13.168Z,24.6
2018-08-23T07:19:02.996Z,24.8
2018-08-23T07:19:52.656Z,24.8
2018-08-23T07:20:43.043Z,24.9
2018-08-23T07:21:33.198Z,24.9
2018-08-23T07:22:23.480Z,24.9
2018-08-23T07:23:12.260Z,25.5
2018-08-23T07:24:02.602Z,25.9
2018-08-23T07:24:53.171Z,26.1
2018-08-23T07:25:43.214Z,26
2018-08-23T07:26:33.658Z,25.8
2018-08-23T07:27:23.863Z,26
2018-08-23T07:28:13.447Z,26.2
2018-08-23T07:29:03.788Z,26.1
2018-08-23T07:29:55.017Z,25.8
2018-08-23T07:30:43.907Z,26.1
2018-08-23T07:31:34.632Z,26.1
2018-08-23T07:32:24.501Z,26.1
2018-08-23T07:33:15.070Z,26.4
2018-08-23T07:34:04.816Z,26.4
2018-08-23T07:34:54.414Z,26.6
2018-08-23T07:35:44.762Z,26.6
2018-08-23T07:36:34.660Z,26.6
2018-08-23T07:37:24.075Z,26.6
2018-08-23T07:38:14.673Z,26.9
2018-08-23T07:39:04.858Z,26.9
2018-08-23T07:39:55.075Z,26.5
2018-08-23T07:40:45.153Z,26.1
2018-08-23T07:41:35.234Z,26
2018-08-23T07:42:25.134Z,26.3
2018-08-23T07:43:14.967Z,26.3
2018-08-23T07:44:05.127Z,26.1
2018-08-23T07:44:55.470Z,26.1
2018-08-23T07:45:45.567Z,26.4
2018-08-23T07:46:35.337Z,26.8
2018-08-23T07:47:25.411Z,27.1
2018-08-23T07:48:15.467Z,27.2
2018-08-23T07:49:05.287Z,27.3
2018-08-23T07:49:55.995Z,27.3
2018-08-23T07:50:45.400Z,27.1
2018-08-23T07:51:36.025Z,27.3
2018-08-23T07:52:26.201Z,27.5
2018-08-23T07:53:17.100Z,27
2018-08-23T07:54:05.907Z,26.4
2018-08-23T07:54:56.246Z,26.9
2018-08-23T07:55:46.321Z,26.9
2018-08-23T07:56:36.470Z,26.8
2018-08-23T07:57:26.466Z,26.9
2018-08-23T07:58:16.298Z,27.1
2018-08-23T07:59:06.580Z,27.5
2018-08-23T07:59:56.383Z,27.8
2018-08-23T08:00:46.719Z,27.5
2018-08-23T08:02:26.551Z,28.1
2018-08-23T08:03:16.895Z,28.3
2018-08-23T08:04:07.051Z,28.4
2018-08-23T08:04:56.542Z,28.6
2018-08-23T08:05:47.241Z,28.7
2018-08-23T08:06:37.158Z,28.4
2018-08-23T08:07:27.270Z,28.3
2018-08-23T08:08:17.316Z,27.8
2018-08-23T08:09:07.362Z,27.9
2018-08-23T08:09:57.144Z,27.9
2018-08-23T08:10:47.513Z,27.8
2018-08-23T08:11:37.545Z,28.1
2018-08-23T08:12:27.635Z,28.6
2018-08-23T08:13:17.430Z,28.8
2018-08-23T08:14:07.779Z,28.5
2018-08-23T08:14:58.597Z,28.7
2018-08-23T08:15:47.614Z,28.7
2018-08-23T08:16:37.683Z,28.8
2018-08-23T08:17:28.059Z,29.1
2018-08-23T08:18:17.829Z,29.1
2018-08-23T08:19:08.158Z,28.9
2018-08-23T08:19:57.936Z,28.9
2018-08-23T08:20:48.624Z,28.9
2018-08-23T08:21:38.387Z,28.7
2018-08-23T08:22:28.432Z,28.6
2018-08-23T08:23:18.496Z,28.5
2018-08-23T08:24:07.983Z,28.3
2018-08-23T08:24:58.622Z,28.6
2018-08-23T08:25:48.705Z,28.6
2018-08-23T08:26:38.753Z,28.3
2018-08-23T08:27:28.251Z,28.7
2018-08-23T08:28:18.903Z,29.1
2018-08-23T08:29:09.034Z,29.3
2018-08-23T08:29:59.009Z,29.6
2018-08-23T08:30:49.196Z,30.1
2018-08-23T08:31:39.146Z,29.8
2018-08-23T08:32:29.285Z,29.7
2018-08-23T08:33:19.812Z,29.4
2018-08-23T08:34:09.317Z,29.7
2018-08-23T08:34:59.412Z,29.8
2018-08-23T08:35:48.741Z,29.9
2018-08-23T08:36:39.513Z,30.2
2018-08-23T08:37:29.616Z,30.1
2018-08-23T08:38:19.541Z,29.9
2018-08-23T08:39:09.485Z,28.8
2018-08-23T08:39:59.778Z,29.3
2018-08-23T08:40:49.843Z,29.4
2018-08-23T08:41:39.772Z,29.6
2018-08-23T08:42:30.051Z,29.7
2018-08-23T08:43:20.141Z,29.6
2018-08-23T08:44:10.016Z,29.7
2018-08-23T08:44:59.991Z,29.5
2018-08-23T08:45:50.164Z,29.2
2018-08-23T08:46:40.503Z,29
2018-08-23T08:47:30.525Z,29.3
2018-08-23T08:48:19.729Z,29.3
2018-08-23T08:49:10.348Z,29.4
2018-08-23T08:49:59.947Z,29.1
2018-08-23T08:50:50.956Z,29.1
2018-08-23T08:51:40.520Z,29.4
2018-08-23T08:52:30.917Z,29.6
2018-08-23T08:53:20.439Z,29.1
2018-08-23T08:54:10.742Z,29.3
2018-08-23T08:55:00.965Z,28.8
2018-08-23T08:55:50.514Z,28.9
2018-08-23T08:56:41.430Z,28.7
2018-08-23T08:57:31.243Z,28.9
2018-08-23T08:58:21.215Z,29.6
2018-08-23T09:14:59.724Z,28.3
2018-08-23T09:15:49.759Z,27.7
2018-08-23T09:16:39.872Z,27.6
2018-08-23T09:17:29.901Z,27.6
2018-08-23T09:18:19.970Z,27.6
2018-08-23T09:20:00.096Z,28.3
2018-08-23T09:20:50.217Z,28.5
2018-08-23T09:21:39.940Z,27.9
2018-08-23T09:22:30.014Z,28.2
2018-08-23T09:23:20.045Z,28.3
2018-08-23T09:24:10.146Z,28.7
2018-08-23T09:25:00.195Z,28.6
2018-08-23T09:25:50.256Z,29
2018-08-23T09:26:40.609Z,29.2
2018-08-23T09:27:30.689Z,28.9
2018-08-23T09:28:20.180Z,28.4
2018-08-23T09:29:10.851Z,28.4
2018-08-23T09:30:00.884Z,27.8
2018-08-23T09:30:50.379Z,28.1
2018-08-23T09:31:41.029Z,28
2018-08-23T09:32:31.091Z,28.4
2018-08-23T09:33:20.854Z,28.4
2018-08-23T09:34:11.200Z,28.4
2018-08-23T09:35:01.280Z,28.1
2018-08-23T09:36:41.416Z,27.9
2018-08-23T09:37:31.466Z,27.8
2018-08-23T09:38:21.254Z,28.3
2018-08-23T09:39:11.333Z,28.8
2018-08-23T09:40:01.670Z,29.1
2018-08-23T09:40:51.746Z,29
2018-08-23T09:41:41.730Z,28.9
2018-08-23T09:42:31.546Z,29
2018-08-23T09:43:21.659Z,29.3
2018-08-23T09:44:11.686Z,29.8
2018-08-23T09:45:02.031Z,29.6
2018-08-23T09:45:51.842Z,29.1
2018-08-23T09:46:41.896Z,29.2
2018-08-23T09:47:31.967Z,28.8
2018-08-23T09:48:21.736Z,28.9
2018-08-23T09:49:11.808Z,29
2018-08-23T09:50:02.764Z,28.9
2018-08-23T09:50:53.628Z,28.5
2018-08-23T09:51:42.306Z,28.7
2018-08-23T09:52:32.343Z,28.6
2018-08-23T09:53:22.694Z,28.9
2018-08-23T09:54:11.913Z,28.9
2018-08-23T09:55:02.547Z,28.7
2018-08-23T09:55:52.361Z,28.7
2018-08-23T09:56:43.475Z,29.1
2018-08-23T09:57:32.465Z,29.3
2018-08-23T09:58:23.089Z,29.4
2018-08-23T09:59:13.156Z,29.4
2018-08-23T10:00:02.951Z,28.7
2018-08-23T10:00:53.025Z,29.1
2018-08-23T10:01:43.354Z,29.5
2018-08-23T10:02:33.195Z,29.8
2018-08-23T10:03:23.520Z,29
2018-08-23T10:04:13.795Z,28.7
2018-08-23T10:05:03.669Z,28.8
2018-08-23T10:05:53.683Z,29.1
2018-08-23T10:06:43.761Z,29.1
2018-08-23T10:07:33.575Z,29.1
2018-08-23T10:08:23.883Z,29.5
2018-08-23T10:09:13.670Z,29.7
2018-08-23T10:10:04.030Z,29.4
2018-08-23T10:10:53.777Z,29.1
2018-08-23T10:11:44.739Z,29.5
2018-08-23T10:12:33.732Z,29.9
2018-08-23T10:13:23.977Z,30.2
2018-08-23T10:14:14.047Z,30.3
2018-08-23T10:15:04.402Z,30.1
2018-08-23T10:15:53.595Z,30.2
2018-08-23T10:16:44.336Z,30.2
2018-08-23T10:17:34.623Z,29.8
2018-08-23T10:18:23.807Z,28.7
2018-08-23T10:19:14.692Z,28.9
2018-08-23T10:20:04.579Z,29.1
2018-08-23T10:20:54.594Z,29.2
2018-08-23T10:21:44.969Z,28.8
2018-08-23T10:22:34.984Z,28.5
2018-08-23T10:23:25.058Z,28.8
2018-08-23T10:24:15.120Z,29.3
2018-08-23T10:25:05.187Z,28.8
2018-08-23T10:25:55.234Z,28.8
2018-08-23T10:26:45.932Z,29.1
2018-08-23T10:27:35.488Z,29.4
2018-08-23T10:28:25.184Z,29.9
2018-08-23T10:29:15.491Z,29.8
2018-08-23T10:30:05.573Z,30.1
2018-08-23T10:30:55.403Z,29.9
2018-08-23T10:31:45.197Z,29.9
2018-08-23T10:32:35.848Z,29.4
2018-08-23T10:33:25.922Z,29.1
2018-08-23T10:34:15.948Z,29.3
2018-08-23T10:35:06.008Z,29.9
2018-08-23T10:35:55.815Z,29.5
2018-08-23T10:36:45.564Z,29.9
2018-08-23T10:37:36.241Z,29.4
2018-08-23T10:38:26.004Z,28.9
2018-08-23T10:39:16.093Z,28.8
2018-08-23T10:40:06.383Z,29.1
2018-08-23T10:40:56.196Z,29.6
2018-08-23T10:41:45.692Z,29.4
2018-08-23T10:42:36.299Z,29.1
2018-08-23T10:43:26.067Z,29.1
2018-08-23T10:44:16.266Z,29.9
2018-08-23T10:45:06.222Z,30.1
2018-08-23T10:45:55.982Z,29.7
2018-08-23T10:46:46.632Z,30.1
2018-08-23T10:47:36.697Z,30.3
2018-08-23T10:48:26.775Z,29.6
2018-08-23T10:49:16.840Z,29.2
2018-08-23T10:50:06.889Z,29.2
2018-08-23T10:50:56.893Z,29.6
2018-08-23T10:51:47.056Z,29.9
2018-08-23T10:52:37.374Z,29.6
2018-08-23T10:53:27.377Z,29.7
2018-08-23T10:54:17.494Z,29.3
2018-08-23T10:55:07.552Z,29
2018-08-23T10:55:57.608Z,29
2018-08-23T10:56:47.654Z,29.5
2018-08-23T10:57:37.436Z,29.3
2018-08-23T10:58:27.806Z,29.4
2018-08-23T10:59:17.899Z,29.3
2018-08-23T11:00:07.906Z,29.4
2018-08-23T11:00:58.014Z,29.4
2018-08-23T11:01:47.779Z,28.9
2018-08-23T11:02:38.113Z,29.2
2018-08-23T11:03:28.206Z,28.9
2018-08-23T11:04:18.291Z,28.9
2018-08-23T11:05:08.316Z,28.8
2018-08-23T11:05:58.114Z,29.3
2018-08-23T11:06:48.268Z,29.8
2018-08-23T11:07:38.275Z,29.6
2018-08-23T11:08:28.580Z,30.1
2018-08-23T11:09:18.705Z,29.7
2018-08-23T11:10:08.726Z,29.7
2018-08-23T11:10:58.806Z,29.9
2018-08-23T11:11:48.685Z,29.8
2018-08-23T11:12:38.925Z,30
2018-08-23T11:13:29.040Z,30
2018-08-23T11:14:18.770Z,30.1
2018-08-23T11:15:08.866Z,29.8
2018-08-23T11:15:59.162Z,29.6
2018-08-23T11:16:49.929Z,29.2
2018-08-23T11:17:39.316Z,29.4
2018-08-23T11:18:29.369Z,30
2018-08-23T11:19:19.448Z,30.3
2018-08-23T11:20:09.040Z,30.3
2018-08-23T11:20:59.310Z,29.9
2018-08-23T11:21:49.607Z,29.6
2018-08-23T11:22:39.684Z,29.5
2018-08-23T11:23:29.485Z,29.4
2018-08-23T11:24:19.936Z,29.7
2018-08-23T11:25:09.910Z,29.9
2018-08-23T11:25:59.680Z,30.1
2018-08-23T11:26:49.735Z,29.9
2018-08-23T11:27:40.100Z,30.4
2018-08-23T11:28:29.601Z,30.5
2018-08-23T11:29:19.654Z,30.2
2018-08-23T11:30:10.282Z,30.1
2018-08-23T11:31:00.321Z,30.4
2018-08-23T11:31:50.413Z,30.5
2018-08-23T11:32:40.456Z,30.4
2018-08-23T11:33:30.560Z,30.1
2018-08-23T11:34:20.324Z,29.6
2018-08-23T11:35:10.989Z,29.6
2018-08-23T11:36:00.786Z,29.5
2018-08-23T11:36:50.561Z,29.9
2018-08-23T11:37:40.335Z,30.4
2018-08-23T11:38:30.385Z,29.9
2018-08-23T11:39:21.025Z,29.5
2018-08-23T11:40:11.133Z,30
2018-08-23T11:41:00.889Z,30.8
2018-08-23T11:41:50.953Z,31.1
2018-08-23T11:42:41.610Z,31
2018-08-23T11:43:31.377Z,31.1
2018-08-23T11:44:21.399Z,31.1
2018-08-23T11:45:11.189Z,30.4
2018-08-23T11:46:01.597Z,30.1
2018-08-23T11:46:51.395Z,29.8
2018-08-23T11:47:41.699Z,29.8
2018-08-23T11:48:31.747Z,30.1
2018-08-23T11:49:21.812Z,30.3
2018-08-23T11:50:11.902Z,30.8
2018-08-23T11:51:01.405Z,30.1
2018-08-23T11:51:51.443Z,30
2018-08-23T11:52:41.856Z,29.9
2018-08-23T11:53:34.123Z,29.8
2018-08-23T11:54:21.644Z,29.8
2018-08-23T11:55:11.974Z,30.2
2018-08-23T11:56:02.360Z,30
2018-08-23T11:56:52.116Z,29.9
2018-08-23T11:57:41.889Z,29.6
2018-08-23T11:58:32.697Z,29.8
2018-08-23T11:59:22.365Z,30
2018-08-23T12:00:12.388Z,29.9
2018-08-23T12:01:02.781Z,29.8
2018-08-23T12:01:52.913Z,29.3
2018-08-23T12:02:42.654Z,28.9
2018-08-23T12:03:32.660Z,29.1
2018-08-23T12:04:22.735Z,29.1
2018-08-23T12:05:12.451Z,29.1
2018-08-23T12:06:02.830Z,29.5
2018-08-23T12:06:53.165Z,29.5
2018-08-23T12:07:43.608Z,29.1
2018-08-23T12:08:33.327Z,29.6
2018-08-23T12:09:23.408Z,29.5
2018-08-23T12:10:13.435Z,29.9